sensor_id;sensor_type;location;lat;lon;timestamp;P1;durP1;ratioP1;P2;durP2;ratioP2
42978;SDS011;28616;44.746;19.678;2022-10-16T00:00:34;29.98;;;13.65;;
42978;SDS011;28616;44.746;19.678;2022-10-16T00:03:01;36.40;;;16.35;;
42978;SDS011;28616;44.746;19.678;2022-10-16T00:05:28;35.70;;;15.52;;
42978;SDS011;28616;44.746;19.678;2022-10-16T00:07:53;31.98;;;16.08;;
42978;SDS011;28616;44.746;19.678;2022-10-16T00:10:19;39.17;;;16.55;;
42978;SDS011;28616;44.746;19.678;2022-10-16T00:12:45;38.35;;;16.33;;
42978;SDS011;28616;44.746;19.678;2022-10-16T00:15:11;34.65;;;15.18;;
42978;SDS011;28616;44.746;19.678;2022-10-16T00:17:37;26.77;;;13.95;;
42978;SDS011;28616;44.746;19.678;2022-10-16T00:20:03;28.95;;;13.88;;
42978;SDS011;28616;44.746;19.678;2022-10-16T00:22:30;32.00;;;14.35;;
42978;SDS011;28616;44.746;19.678;2022-10-16T00:24:56;37.00;;;17.33;;
42978;SDS011;28616;44.746;19.678;2022-10-16T00:27:21;39.33;;;18.52;;
42978;SDS011;28616;44.746;19.678;2022-10-16T00:29:51;39.08;;;17.13;;
42978;SDS011;28616;44.746;19.678;2022-10-16T00:32:18;41.53;;;21.60;;
42978;SDS011;28616;44.746;19.678;2022-10-16T00:34:44;35.95;;;18.20;;
42978;SDS011;28616;44.746;19.678;2022-10-16T00:37:11;36.22;;;17.70;;
42978;SDS011;28616;44.746;19.678;2022-10-16T00:39:37;37.97;;;16.23;;
42978;SDS011;28616;44.746;19.678;2022-10-16T00:42:03;31.85;;;15.70;;
42978;SDS011;28616;44.746;19.678;2022-10-16T00:47:15;45.17;;;17.70;;
42978;SDS011;28616;44.746;19.678;2022-10-16T00:49:46;34.33;;;17.48;;
42978;SDS011;28616;44.746;19.678;2022-10-16T00:52:13;40.30;;;17.13;;
42978;SDS011;28616;44.746;19.678;2022-10-16T00:54:40;34.40;;;18.30;;
42978;SDS011;28616;44.746;19.678;2022-10-16T00:57:06;34.90;;;17.67;;
42978;SDS011;28616;44.746;19.678;2022-10-16T00:59:35;46.65;;;19.30;;
42978;SDS011;28616;44.746;19.678;2022-10-16T01:02:05;44.15;;;20.38;;
42978;SDS011;28616;44.746;19.678;2022-10-16T01:04:39;44.45;;;20.13;;
42978;SDS011;28616;44.746;19.678;2022-10-16T01:20:10;29.52;;;15.13;;
42978;SDS011;28616;44.746;19.678;2022-10-16T01:25:19;36.83;;;17.13;;
42978;SDS011;28616;44.746;19.678;2022-10-16T01:28:12;35.33;;;17.48;;
42978;SDS011;28616;44.746;19.678;2022-10-16T01:30:41;29.33;;;16.63;;
42978;SDS011;28616;44.746;19.678;2022-10-16T01:33:10;36.25;;;16.98;;
42978;SDS011;28616;44.746;19.678;2022-10-16T01:35:46;35.00;;;16.73;;
42978;SDS011;28616;44.746;19.678;2022-10-16T01:38:23;38.95;;;16.25;;
42978;SDS011;28616;44.746;19.678;2022-10-16T01:41:01;35.45;;;17.10;;
42978;SDS011;28616;44.746;19.678;2022-10-16T01:46:26;39.72;;;18.70;;
42978;SDS011;28616;44.746;19.678;2022-10-16T01:48:53;33.40;;;17.50;;
42978;SDS011;28616;44.746;19.678;2022-10-16T01:51:20;39.67;;;18.40;;
42978;SDS011;28616;44.746;19.678;2022-10-16T01:53:49;33.90;;;17.00;;
42978;SDS011;28616;44.746;19.678;2022-10-16T01:56:19;32.17;;;15.53;;
42978;SDS011;28616;44.746;19.678;2022-10-16T01:58:57;30.90;;;15.75;;
42978;SDS011;28616;44.746;19.678;2022-10-16T02:01:31;34.00;;;15.07;;
42978;SDS011;28616;44.746;19.678;2022-10-16T02:04:01;31.27;;;15.70;;
42978;SDS011;28616;44.746;19.678;2022-10-16T02:06:32;34.47;;;14.77;;
42978;SDS011;28616;44.746;19.678;2022-10-16T02:08:58;32.28;;;14.38;;
42978;SDS011;28616;44.746;19.678;2022-10-16T02:11:24;29.50;;;14.60;;
42978;SDS011;28616;44.746;19.678;2022-10-16T02:13:52;30.27;;;14.07;;
42978;SDS011;28616;44.746;19.678;2022-10-16T02:16:31;33.85;;;14.48;;
42978;SDS011;28616;44.746;19.678;2022-10-16T02:19:01;40.95;;;17.58;;
42978;SDS011;28616;44.746;19.678;2022-10-16T02:21:37;37.35;;;17.67;;
42978;SDS011;28616;44.746;19.678;2022-10-16T02:24:11;41.83;;;18.27;;
42978;SDS011;28616;44.746;19.678;2022-10-16T02:29:14;39.05;;;19.08;;
42978;SDS011;28616;44.746;19.678;2022-10-16T02:31:53;41.60;;;18.23;;
42978;SDS011;28616;44.746;19.678;2022-10-16T02:34:23;33.92;;;17.55;;
42978;SDS011;28616;44.746;19.678;2022-10-16T02:36:52;32.53;;;17.58;;
42978;SDS011;28616;44.746;19.678;2022-10-16T02:39:19;33.63;;;17.85;;
42978;SDS011;28616;44.746;19.678;2022-10-16T02:41:46;27.35;;;16.48;;
42978;SDS011;28616;44.746;19.678;2022-10-16T02:44:12;35.13;;;17.52;;
42978;SDS011;28616;44.746;19.678;2022-10-16T02:46:38;38.22;;;17.50;;
42978;SDS011;28616;44.746;19.678;2022-10-16T02:49:04;31.83;;;18.02;;
42978;SDS011;28616;44.746;19.678;2022-10-16T02:51:30;39.95;;;20.77;;
42978;SDS011;28616;44.746;19.678;2022-10-16T02:53:56;42.67;;;22.02;;
42978;SDS011;28616;44.746;19.678;2022-10-16T02:56:21;46.97;;;21.98;;
42978;SDS011;28616;44.746;19.678;2022-10-16T02:58:47;45.03;;;23.05;;
42978;SDS011;28616;44.746;19.678;2022-10-16T03:01:13;46.67;;;23.17;;
42978;SDS011;28616;44.746;19.678;2022-10-16T03:03:41;41.38;;;21.90;;
42978;SDS011;28616;44.746;19.678;2022-10-16T03:06:07;44.65;;;23.27;;
42978;SDS011;28616;44.746;19.678;2022-10-16T03:08:33;47.20;;;24.85;;
42978;SDS011;28616;44.746;19.678;2022-10-16T03:10:59;65.25;;;34.97;;
42978;SDS011;28616;44.746;19.678;2022-10-16T03:13:25;60.92;;;31.75;;
42978;SDS011;28616;44.746;19.678;2022-10-16T03:15:51;55.83;;;32.03;;
42978;SDS011;28616;44.746;19.678;2022-10-16T03:18:16;59.97;;;29.73;;
42978;SDS011;28616;44.746;19.678;2022-10-16T03:20:42;55.65;;;26.98;;
42978;SDS011;28616;44.746;19.678;2022-10-16T03:23:09;51.20;;;27.15;;
42978;SDS011;28616;44.746;19.678;2022-10-16T03:25:34;54.67;;;28.77;;
42978;SDS011;28616;44.746;19.678;2022-10-16T03:28:00;48.53;;;26.52;;
42978;SDS011;28616;44.746;19.678;2022-10-16T03:30:26;51.25;;;26.15;;
42978;SDS011;28616;44.746;19.678;2022-10-16T03:32:52;42.67;;;23.50;;
42978;SDS011;28616;44.746;19.678;2022-10-16T03:35:22;43.78;;;23.33;;
42978;SDS011;28616;44.746;19.678;2022-10-16T03:37:49;50.85;;;26.67;;
42978;SDS011;28616;44.746;19.678;2022-10-16T03:40:15;52.80;;;29.42;;
42978;SDS011;28616;44.746;19.678;2022-10-16T03:42:42;63.85;;;33.97;;
42978;SDS011;28616;44.746;19.678;2022-10-16T03:45:08;64.32;;;34.40;;
42978;SDS011;28616;44.746;19.678;2022-10-16T03:47:35;66.68;;;33.65;;
42978;SDS011;28616;44.746;19.678;2022-10-16T03:50:01;65.90;;;33.17;;
42978;SDS011;28616;44.746;19.678;2022-10-16T03:52:28;63.63;;;31.10;;
42978;SDS011;28616;44.746;19.678;2022-10-16T03:54:53;71.00;;;31.45;;
42978;SDS011;28616;44.746;19.678;2022-10-16T03:57:19;55.78;;;29.25;;
42978;SDS011;28616;44.746;19.678;2022-10-16T03:59:45;54.67;;;29.40;;
42978;SDS011;28616;44.746;19.678;2022-10-16T04:02:11;59.47;;;29.60;;
42978;SDS011;28616;44.746;19.678;2022-10-16T04:04:37;58.00;;;28.23;;
42978;SDS011;28616;44.746;19.678;2022-10-16T04:07:03;56.33;;;28.08;;
42978;SDS011;28616;44.746;19.678;2022-10-16T04:09:29;55.97;;;28.85;;
42978;SDS011;28616;44.746;19.678;2022-10-16T04:11:54;47.83;;;25.80;;
42978;SDS011;28616;44.746;19.678;2022-10-16T04:14:20;44.08;;;23.35;;
42978;SDS011;28616;44.746;19.678;2022-10-16T04:16:46;39.90;;;22.60;;
42978;SDS011;28616;44.746;19.678;2022-10-16T04:19:11;40.47;;;22.95;;
42978;SDS011;28616;44.746;19.678;2022-10-16T04:21:38;42.65;;;22.55;;
42978;SDS011;28616;44.746;19.678;2022-10-16T04:24:04;50.17;;;24.20;;
42978;SDS011;28616;44.746;19.678;2022-10-16T04:26:29;46.28;;;24.77;;
42978;SDS011;28616;44.746;19.678;2022-10-16T04:28:55;43.53;;;25.38;;
42978;SDS011;28616;44.746;19.678;2022-10-16T04:31:21;46.95;;;22.95;;
42978;SDS011;28616;44.746;19.678;2022-10-16T04:33:47;40.33;;;22.05;;
42978;SDS011;28616;44.746;19.678;2022-10-16T04:36:13;37.10;;;21.75;;
42978;SDS011;28616;44.746;19.678;2022-10-16T04:38:39;33.35;;;20.98;;
42978;SDS011;28616;44.746;19.678;2022-10-16T04:41:05;40.35;;;21.73;;
42978;SDS011;28616;44.746;19.678;2022-10-16T04:43:32;43.47;;;21.75;;
42978;SDS011;28616;44.746;19.678;2022-10-16T04:45:58;37.33;;;21.02;;
42978;SDS011;28616;44.746;19.678;2022-10-16T04:48:24;36.95;;;21.88;;
42978;SDS011;28616;44.746;19.678;2022-10-16T04:50:50;47.75;;;24.50;;
42978;SDS011;28616;44.746;19.678;2022-10-16T04:53:16;47.03;;;23.75;;
42978;SDS011;28616;44.746;19.678;2022-10-16T04:55:42;44.78;;;24.42;;
42978;SDS011;28616;44.746;19.678;2022-10-16T04:58:08;96.07;;;48.55;;
42978;SDS011;28616;44.746;19.678;2022-10-16T05:00:34;100.10;;;53.33;;
42978;SDS011;28616;44.746;19.678;2022-10-16T05:03:01;102.18;;;51.20;;
42978;SDS011;28616;44.746;19.678;2022-10-16T05:05:31;73.88;;;36.47;;
42978;SDS011;28616;44.746;19.678;2022-10-16T05:07:56;62.40;;;33.20;;
42978;SDS011;28616;44.746;19.678;2022-10-16T05:10:22;54.78;;;26.05;;
42978;SDS011;28616;44.746;19.678;2022-10-16T05:12:48;45.78;;;23.88;;
42978;SDS011;28616;44.746;19.678;2022-10-16T05:15:14;49.40;;;23.10;;
42978;SDS011;28616;44.746;19.678;2022-10-16T05:17:40;45.80;;;22.45;;
42978;SDS011;28616;44.746;19.678;2022-10-16T05:20:06;54.10;;;24.10;;
42978;SDS011;28616;44.746;19.678;2022-10-16T05:22:32;45.20;;;23.58;;
42978;SDS011;28616;44.746;19.678;2022-10-16T05:24:58;53.17;;;25.33;;
42978;SDS011;28616;44.746;19.678;2022-10-16T05:27:24;45.53;;;25.48;;
42978;SDS011;28616;44.746;19.678;2022-10-16T05:29:50;48.53;;;25.45;;
42978;SDS011;28616;44.746;19.678;2022-10-16T05:32:16;51.10;;;27.95;;
42978;SDS011;28616;44.746;19.678;2022-10-16T05:34:42;60.45;;;30.20;;
42978;SDS011;28616;44.746;19.678;2022-10-16T05:37:09;53.47;;;31.55;;
42978;SDS011;28616;44.746;19.678;2022-10-16T05:39:36;62.83;;;33.00;;
42978;SDS011;28616;44.746;19.678;2022-10-16T05:42:02;59.70;;;28.15;;
42978;SDS011;28616;44.746;19.678;2022-10-16T05:44:29;52.17;;;27.30;;
42978;SDS011;28616;44.746;19.678;2022-10-16T05:46:55;45.08;;;25.48;;
42978;SDS011;28616;44.746;19.678;2022-10-16T05:49:20;51.03;;;27.65;;
42978;SDS011;28616;44.746;19.678;2022-10-16T05:51:46;52.13;;;29.30;;
42978;SDS011;28616;44.746;19.678;2022-10-16T05:54:12;49.42;;;27.50;;
42978;SDS011;28616;44.746;19.678;2022-10-16T05:56:38;57.08;;;29.48;;
42978;SDS011;28616;44.746;19.678;2022-10-16T05:59:04;50.47;;;27.90;;
42978;SDS011;28616;44.746;19.678;2022-10-16T06:01:30;53.20;;;30.45;;
42978;SDS011;28616;44.746;19.678;2022-10-16T06:03:56;48.20;;;26.60;;
42978;SDS011;28616;44.746;19.678;2022-10-16T06:06:23;48.00;;;26.73;;
42978;SDS011;28616;44.746;19.678;2022-10-16T06:08:51;44.97;;;26.45;;
42978;SDS011;28616;44.746;19.678;2022-10-16T06:11:18;40.35;;;23.85;;
42978;SDS011;28616;44.746;19.678;2022-10-16T06:13:52;44.40;;;22.73;;
42978;SDS011;28616;44.746;19.678;2022-10-16T06:16:20;39.13;;;23.30;;
42978;SDS011;28616;44.746;19.678;2022-10-16T06:18:46;39.90;;;22.45;;
42978;SDS011;28616;44.746;19.678;2022-10-16T06:21:19;36.28;;;22.17;;
42978;SDS011;28616;44.746;19.678;2022-10-16T06:23:47;29.58;;;18.75;;
42978;SDS011;28616;44.746;19.678;2022-10-16T06:26:14;34.22;;;20.23;;
42978;SDS011;28616;44.746;19.678;2022-10-16T06:28:42;35.80;;;20.67;;
42978;SDS011;28616;44.746;19.678;2022-10-16T06:31:08;35.75;;;19.40;;
42978;SDS011;28616;44.746;19.678;2022-10-16T06:33:35;32.63;;;18.42;;
42978;SDS011;28616;44.746;19.678;2022-10-16T06:36:06;36.67;;;23.40;;
42978;SDS011;28616;44.746;19.678;2022-10-16T06:38:36;32.92;;;19.08;;
42978;SDS011;28616;44.746;19.678;2022-10-16T06:41:03;34.33;;;15.40;;
42978;SDS011;28616;44.746;19.678;2022-10-16T06:43:29;25.55;;;15.38;;
42978;SDS011;28616;44.746;19.678;2022-10-16T06:46:02;33.03;;;15.38;;
42978;SDS011;28616;44.746;19.678;2022-10-16T06:48:29;24.73;;;15.00;;
42978;SDS011;28616;44.746;19.678;2022-10-16T06:50:59;28.02;;;16.77;;
42978;SDS011;28616;44.746;19.678;2022-10-16T06:53:31;30.17;;;17.45;;
42978;SDS011;28616;44.746;19.678;2022-10-16T06:56:06;33.40;;;20.80;;
42978;SDS011;28616;44.746;19.678;2022-10-16T06:58:35;37.90;;;22.23;;
42978;SDS011;28616;44.746;19.678;2022-10-16T07:01:02;36.05;;;19.58;;
42978;SDS011;28616;44.746;19.678;2022-10-16T07:03:28;36.45;;;19.95;;
42978;SDS011;28616;44.746;19.678;2022-10-16T07:05:54;37.40;;;21.80;;
42978;SDS011;28616;44.746;19.678;2022-10-16T07:08:20;36.50;;;20.95;;
42978;SDS011;28616;44.746;19.678;2022-10-16T07:10:45;44.08;;;22.75;;
42978;SDS011;28616;44.746;19.678;2022-10-16T07:13:11;45.88;;;23.17;;
42978;SDS011;28616;44.746;19.678;2022-10-16T07:15:39;37.78;;;22.40;;
42978;SDS011;28616;44.746;19.678;2022-10-16T07:18:05;42.38;;;25.60;;
42978;SDS011;28616;44.746;19.678;2022-10-16T07:20:31;40.10;;;24.30;;
42978;SDS011;28616;44.746;19.678;2022-10-16T07:22:57;44.67;;;25.70;;
42978;SDS011;28616;44.746;19.678;2022-10-16T07:25:23;44.15;;;25.23;;
42978;SDS011;28616;44.746;19.678;2022-10-16T07:27:49;37.95;;;19.92;;
42978;SDS011;28616;44.746;19.678;2022-10-16T07:30:15;38.67;;;21.23;;
42978;SDS011;28616;44.746;19.678;2022-10-16T07:32:41;38.47;;;22.70;;
42978;SDS011;28616;44.746;19.678;2022-10-16T07:35:07;43.10;;;23.85;;
42978;SDS011;28616;44.746;19.678;2022-10-16T07:37:33;41.22;;;24.08;;
42978;SDS011;28616;44.746;19.678;2022-10-16T07:39:58;51.80;;;25.90;;
42978;SDS011;28616;44.746;19.678;2022-10-16T07:42:24;43.25;;;25.30;;
42978;SDS011;28616;44.746;19.678;2022-10-16T07:44:50;38.35;;;22.67;;
42978;SDS011;28616;44.746;19.678;2022-10-16T07:47:16;45.90;;;24.48;;
42978;SDS011;28616;44.746;19.678;2022-10-16T07:49:41;35.38;;;21.75;;
42978;SDS011;28616;44.746;19.678;2022-10-16T07:52:07;36.13;;;19.88;;
42978;SDS011;28616;44.746;19.678;2022-10-16T07:54:33;46.63;;;20.58;;
42978;SDS011;28616;44.746;19.678;2022-10-16T07:56:59;40.17;;;20.80;;
42978;SDS011;28616;44.746;19.678;2022-10-16T07:59:24;43.63;;;22.55;;
42978;SDS011;28616;44.746;19.678;2022-10-16T08:01:50;42.55;;;20.50;;
42978;SDS011;28616;44.746;19.678;2022-10-16T08:04:16;33.55;;;19.27;;
42978;SDS011;28616;44.746;19.678;2022-10-16T08:06:42;40.05;;;24.02;;
42978;SDS011;28616;44.746;19.678;2022-10-16T08:09:08;38.15;;;21.75;;
42978;SDS011;28616;44.746;19.678;2022-10-16T08:11:35;34.53;;;19.10;;
42978;SDS011;28616;44.746;19.678;2022-10-16T08:14:01;29.00;;;16.25;;
42978;SDS011;28616;44.746;19.678;2022-10-16T08:16:26;29.15;;;16.42;;
42978;SDS011;28616;44.746;19.678;2022-10-16T08:18:52;33.53;;;17.75;;
42978;SDS011;28616;44.746;19.678;2022-10-16T08:21:19;34.78;;;17.50;;
42978;SDS011;28616;44.746;19.678;2022-10-16T08:23:48;32.22;;;17.83;;
42978;SDS011;28616;44.746;19.678;2022-10-16T08:26:15;29.27;;;16.75;;
42978;SDS011;28616;44.746;19.678;2022-10-16T08:28:41;33.63;;;17.02;;
42978;SDS011;28616;44.746;19.678;2022-10-16T08:31:10;33.63;;;16.65;;
42978;SDS011;28616;44.746;19.678;2022-10-16T08:36:06;30.83;;;15.00;;
42978;SDS011;28616;44.746;19.678;2022-10-16T08:38:32;27.23;;;15.02;;
42978;SDS011;28616;44.746;19.678;2022-10-16T08:41:47;26.83;;;14.82;;
42978;SDS011;28616;44.746;19.678;2022-10-16T08:49:46;26.15;;;15.27;;
42978;SDS011;28616;44.746;19.678;2022-10-16T08:52:21;31.67;;;16.73;;
42978;SDS011;28616;44.746;19.678;2022-10-16T08:54:50;32.88;;;17.13;;
42978;SDS011;28616;44.746;19.678;2022-10-16T08:57:20;32.05;;;16.17;;
42978;SDS011;28616;44.746;19.678;2022-10-16T08:59:48;29.05;;;15.98;;
42978;SDS011;28616;44.746;19.678;2022-10-16T09:05:10;31.38;;;16.38;;
42978;SDS011;28616;44.746;19.678;2022-10-16T09:08:09;26.02;;;17.08;;
42978;SDS011;28616;44.746;19.678;2022-10-16T09:13:28;26.50;;;15.27;;
42978;SDS011;28616;44.746;19.678;2022-10-16T09:16:18;25.50;;;15.43;;
42978;SDS011;28616;44.746;19.678;2022-10-16T09:21:23;27.90;;;13.98;;
42978;SDS011;28616;44.746;19.678;2022-10-16T09:23:52;33.55;;;15.75;;
42978;SDS011;28616;44.746;19.678;2022-10-16T09:26:22;26.65;;;14.52;;
42978;SDS011;28616;44.746;19.678;2022-10-16T09:28:48;26.15;;;15.23;;
42978;SDS011;28616;44.746;19.678;2022-10-16T09:31:17;39.95;;;14.32;;
42978;SDS011;28616;44.746;19.678;2022-10-16T09:33:45;52.42;;;16.40;;
42978;SDS011;28616;44.746;19.678;2022-10-16T09:36:17;26.10;;;14.88;;
42978;SDS011;28616;44.746;19.678;2022-10-16T09:38:45;25.13;;;14.90;;
42978;SDS011;28616;44.746;19.678;2022-10-16T09:43:54;28.63;;;15.80;;
42978;SDS011;28616;44.746;19.678;2022-10-16T09:46:34;23.75;;;14.85;;
42978;SDS011;28616;44.746;19.678;2022-10-16T09:49:16;24.50;;;15.60;;
42978;SDS011;28616;44.746;19.678;2022-10-16T09:51:48;33.63;;;14.70;;
42978;SDS011;28616;44.746;19.678;2022-10-16T09:54:16;28.30;;;15.32;;
42978;SDS011;28616;44.746;19.678;2022-10-16T09:56:43;26.42;;;14.13;;
42978;SDS011;28616;44.746;19.678;2022-10-16T09:59:15;23.80;;;14.80;;
42978;SDS011;28616;44.746;19.678;2022-10-16T10:01:49;22.23;;;14.50;;
42978;SDS011;28616;44.746;19.678;2022-10-16T10:04:17;32.30;;;18.65;;
42978;SDS011;28616;44.746;19.678;2022-10-16T10:06:51;69.25;;;43.45;;
42978;SDS011;28616;44.746;19.678;2022-10-16T10:09:32;106.22;;;63.28;;
42978;SDS011;28616;44.746;19.678;2022-10-16T10:12:04;34.65;;;17.10;;
42978;SDS011;28616;44.746;19.678;2022-10-16T10:14:38;27.23;;;15.27;;
42978;SDS011;28616;44.746;19.678;2022-10-16T10:19:38;26.15;;;13.45;;
42978;SDS011;28616;44.746;19.678;2022-10-16T10:22:44;32.45;;;18.67;;
42978;SDS011;28616;44.746;19.678;2022-10-16T10:30:15;29.15;;;15.63;;
42978;SDS011;28616;44.746;19.678;2022-10-16T10:38:41;25.08;;;12.90;;
42978;SDS011;28616;44.746;19.678;2022-10-16T10:41:27;28.80;;;15.00;;
42978;SDS011;28616;44.746;19.678;2022-10-16T10:44:06;24.42;;;12.85;;
42978;SDS011;28616;44.746;19.678;2022-10-16T10:46:56;17.83;;;12.55;;
42978;SDS011;28616;44.746;19.678;2022-10-16T10:52:13;26.50;;;12.93;;
42978;SDS011;28616;44.746;19.678;2022-10-16T11:00:55;21.83;;;11.90;;
42978;SDS011;28616;44.746;19.678;2022-10-16T11:08:52;20.63;;;12.18;;
42978;SDS011;28616;44.746;19.678;2022-10-16T11:13:50;21.65;;;12.15;;
42978;SDS011;28616;44.746;19.678;2022-10-16T11:16:26;16.20;;;11.68;;
42978;SDS011;28616;44.746;19.678;2022-10-16T11:18:58;18.15;;;12.68;;
42978;SDS011;28616;44.746;19.678;2022-10-16T11:21:25;20.50;;;11.93;;
42978;SDS011;28616;44.746;19.678;2022-10-16T11:24:01;30.85;;;13.07;;
42978;SDS011;28616;44.746;19.678;2022-10-16T11:26:32;19.27;;;11.38;;
42978;SDS011;28616;44.746;19.678;2022-10-16T11:29:00;21.70;;;12.10;;
42978;SDS011;28616;44.746;19.678;2022-10-16T11:31:29;15.65;;;11.85;;
42978;SDS011;28616;44.746;19.678;2022-10-16T11:39:38;18.65;;;11.85;;
42978;SDS011;28616;44.746;19.678;2022-10-16T11:47:45;22.70;;;12.50;;
42978;SDS011;28616;44.746;19.678;2022-10-16T11:50:20;20.55;;;12.77;;
42978;SDS011;28616;44.746;19.678;2022-10-16T11:52:42;19.65;;;13.77;;
42978;SDS011;28616;44.746;19.678;2022-10-16T11:55:16;20.95;;;13.10;;
42978;SDS011;28616;44.746;19.678;2022-10-16T11:57:45;21.08;;;12.93;;
42978;SDS011;28616;44.746;19.678;2022-10-16T12:08:12;17.40;;;13.18;;
42978;SDS011;28616;44.746;19.678;2022-10-16T12:10:40;20.88;;;13.07;;
42978;SDS011;28616;44.746;19.678;2022-10-16T12:15:51;20.08;;;13.32;;
42978;SDS011;28616;44.746;19.678;2022-10-16T12:18:21;24.10;;;14.48;;
42978;SDS011;28616;44.746;19.678;2022-10-16T12:20:54;23.98;;;14.98;;
42978;SDS011;28616;44.746;19.678;2022-10-16T12:23:23;24.92;;;15.85;;
42978;SDS011;28616;44.746;19.678;2022-10-16T12:25:57;27.02;;;13.90;;
42978;SDS011;28616;44.746;19.678;2022-10-16T12:28:27;26.20;;;13.90;;
42978;SDS011;28616;44.746;19.678;2022-10-16T12:31:01;18.88;;;12.02;;
42978;SDS011;28616;44.746;19.678;2022-10-16T12:33:28;20.35;;;13.73;;
42978;SDS011;28616;44.746;19.678;2022-10-16T12:35:55;19.98;;;13.90;;
42978;SDS011;28616;44.746;19.678;2022-10-16T12:40:59;24.58;;;13.57;;
42978;SDS011;28616;44.746;19.678;2022-10-16T12:46:01;20.50;;;13.13;;
42978;SDS011;28616;44.746;19.678;2022-10-16T12:48:28;26.92;;;13.50;;
42978;SDS011;28616;44.746;19.678;2022-10-16T12:50:55;24.48;;;12.50;;
42978;SDS011;28616;44.746;19.678;2022-10-16T12:53:23;22.80;;;13.32;;
42978;SDS011;28616;44.746;19.678;2022-10-16T12:58:38;23.45;;;13.75;;
42978;SDS011;28616;44.746;19.678;2022-10-16T13:06:17;30.63;;;16.48;;
42978;SDS011;28616;44.746;19.678;2022-10-16T13:08:59;31.00;;;14.25;;
42978;SDS011;28616;44.746;19.678;2022-10-16T13:30:17;17.85;;;12.02;;
42978;SDS011;28616;44.746;19.678;2022-10-16T13:32:50;23.98;;;10.98;;
42978;SDS011;28616;44.746;19.678;2022-10-16T13:35:30;24.65;;;13.07;;
42978;SDS011;28616;44.746;19.678;2022-10-16T13:38:04;23.92;;;14.52;;
42978;SDS011;28616;44.746;19.678;2022-10-16T13:40:30;16.23;;;9.10;;
42978;SDS011;28616;44.746;19.678;2022-10-16T13:42:56;14.07;;;10.15;;
42978;SDS011;28616;44.746;19.678;2022-10-16T13:45:24;16.67;;;10.23;;
42978;SDS011;28616;44.746;19.678;2022-10-16T13:48:01;18.75;;;8.82;;
42978;SDS011;28616;44.746;19.678;2022-10-16T13:50:28;15.57;;;8.68;;
42978;SDS011;28616;44.746;19.678;2022-10-16T13:53:03;45.78;;;23.90;;
42978;SDS011;28616;44.746;19.678;2022-10-16T13:55:30;16.80;;;10.18;;
42978;SDS011;28616;44.746;19.678;2022-10-16T13:58:13;12.27;;;8.45;;
42978;SDS011;28616;44.746;19.678;2022-10-16T14:00:40;11.73;;;8.98;;
42978;SDS011;28616;44.746;19.678;2022-10-16T14:03:18;13.05;;;8.65;;
42978;SDS011;28616;44.746;19.678;2022-10-16T14:05:46;13.27;;;8.93;;
42978;SDS011;28616;44.746;19.678;2022-10-16T14:08:17;14.82;;;8.07;;
42978;SDS011;28616;44.746;19.678;2022-10-16T14:10:47;16.73;;;7.72;;
42978;SDS011;28616;44.746;19.678;2022-10-16T14:13:19;20.13;;;7.60;;
42978;SDS011;28616;44.746;19.678;2022-10-16T14:15:54;14.57;;;7.50;;
42978;SDS011;28616;44.746;19.678;2022-10-16T14:18:22;15.80;;;8.00;;
42978;SDS011;28616;44.746;19.678;2022-10-16T14:20:50;13.32;;;8.60;;
42978;SDS011;28616;44.746;19.678;2022-10-16T14:23:29;12.77;;;7.88;;
42978;SDS011;28616;44.746;19.678;2022-10-16T14:28:38;15.68;;;8.43;;
42978;SDS011;28616;44.746;19.678;2022-10-16T14:31:24;14.18;;;8.20;;
42978;SDS011;28616;44.746;19.678;2022-10-16T14:33:50;13.68;;;7.53;;
42978;SDS011;28616;44.746;19.678;2022-10-16T14:36:16;16.85;;;10.48;;
42978;SDS011;28616;44.746;19.678;2022-10-16T14:41:26;12.88;;;8.20;;
42978;SDS011;28616;44.746;19.678;2022-10-16T14:43:54;12.85;;;8.25;;
42978;SDS011;28616;44.746;19.678;2022-10-16T14:46:28;13.43;;;8.43;;
42978;SDS011;28616;44.746;19.678;2022-10-16T14:49:04;17.05;;;7.85;;
42978;SDS011;28616;44.746;19.678;2022-10-16T14:51:41;13.93;;;6.30;;
42978;SDS011;28616;44.746;19.678;2022-10-16T14:54:09;10.85;;;6.70;;
42978;SDS011;28616;44.746;19.678;2022-10-16T14:56:58;11.55;;;6.78;;
42978;SDS011;28616;44.746;19.678;2022-10-16T14:59:37;19.92;;;8.20;;
42978;SDS011;28616;44.746;19.678;2022-10-16T15:02:15;17.75;;;9.18;;
42978;SDS011;28616;44.746;19.678;2022-10-16T15:04:45;16.85;;;9.25;;
42978;SDS011;28616;44.746;19.678;2022-10-16T15:07:11;19.80;;;10.77;;
42978;SDS011;28616;44.746;19.678;2022-10-16T15:09:37;24.15;;;9.85;;
42978;SDS011;28616;44.746;19.678;2022-10-16T15:12:03;17.95;;;8.27;;
42978;SDS011;28616;44.746;19.678;2022-10-16T15:14:29;18.27;;;8.38;;
42978;SDS011;28616;44.746;19.678;2022-10-16T15:16:54;16.77;;;8.95;;
42978;SDS011;28616;44.746;19.678;2022-10-16T15:19:20;21.42;;;9.25;;
42978;SDS011;28616;44.746;19.678;2022-10-16T15:21:46;50.40;;;22.17;;
42978;SDS011;28616;44.746;19.678;2022-10-16T15:24:13;39.00;;;20.83;;
42978;SDS011;28616;44.746;19.678;2022-10-16T15:26:39;24.02;;;13.75;;
42978;SDS011;28616;44.746;19.678;2022-10-16T15:29:05;86.53;;;28.38;;
42978;SDS011;28616;44.746;19.678;2022-10-16T15:31:31;85.15;;;28.45;;
42978;SDS011;28616;44.746;19.678;2022-10-16T15:33:57;167.20;;;60.38;;
42978;SDS011;28616;44.746;19.678;2022-10-16T15:36:29;211.55;;;74.85;;
42978;SDS011;28616;44.746;19.678;2022-10-16T15:38:58;222.20;;;71.28;;
42978;SDS011;28616;44.746;19.678;2022-10-16T15:41:25;173.57;;;55.22;;
42978;SDS011;28616;44.746;19.678;2022-10-16T15:43:51;165.82;;;54.80;;
42978;SDS011;28616;44.746;19.678;2022-10-16T15:46:18;133.70;;;48.53;;
42978;SDS011;28616;44.746;19.678;2022-10-16T15:48:46;88.18;;;36.15;;
42978;SDS011;28616;44.746;19.678;2022-10-16T15:51:13;74.88;;;36.53;;
42978;SDS011;28616;44.746;19.678;2022-10-16T15:53:39;81.18;;;40.33;;
42978;SDS011;28616;44.746;19.678;2022-10-16T15:56:06;85.65;;;47.58;;
42978;SDS011;28616;44.746;19.678;2022-10-16T15:58:33;179.50;;;84.28;;
42978;SDS011;28616;44.746;19.678;2022-10-16T16:00:59;256.17;;;115.85;;
42978;SDS011;28616;44.746;19.678;2022-10-16T16:03:27;502.75;;;254.93;;
42978;SDS011;28616;44.746;19.678;2022-10-16T16:05:53;448.00;;;241.48;;
42978;SDS011;28616;44.746;19.678;2022-10-16T16:08:19;322.05;;;171.82;;
42978;SDS011;28616;44.746;19.678;2022-10-16T16:10:45;441.90;;;249.20;;
42978;SDS011;28616;44.746;19.678;2022-10-16T16:13:21;296.50;;;162.90;;
42978;SDS011;28616;44.746;19.678;2022-10-16T16:15:47;189.45;;;100.70;;
42978;SDS011;28616;44.746;19.678;2022-10-16T16:18:13;93.90;;;44.58;;
42978;SDS011;28616;44.746;19.678;2022-10-16T16:20:39;109.53;;;51.15;;
42978;SDS011;28616;44.746;19.678;2022-10-16T16:23:05;121.97;;;56.00;;
42978;SDS011;28616;44.746;19.678;2022-10-16T16:25:31;111.13;;;51.60;;
42978;SDS011;28616;44.746;19.678;2022-10-16T16:27:57;151.50;;;65.63;;
42978;SDS011;28616;44.746;19.678;2022-10-16T16:30:23;131.40;;;57.05;;